• Join FlightAware (Why Join?)
  • Login
  • US Flag 
 
02:28AM EST


 

Airport Tracker/Info


-or-


 

Live Flight TrackerFlight Track Log ✈ CPA8 ✈ 12-May-2013 ✈ EGLL / LHR - LFPG / CDG

Flight Track Log - Related Links

Times and Time Zones

All times are in EDT time to prevent confusion due to time zone crossing. See the CPA8 flight status page for this flight to view local times or setup timezone preferences in your user account.

Time Position Orientation Groundspeed Altitude Reporting Facility
EDT Latitude Longitude Course Direction KTS MPH feet Rate Location/Type
04:15AM 51.4646 -0.4846 268° West 164 189 100  Level FlightAware UK
04:15AM 51.4643 -0.5049 268° West 176 203 500 1,380 Climbing FlightAware UK
04:16AM 51.4608 -0.5361 260° West 208 239 1,100 1,320 Climbing FlightAware UK
04:16AM 51.4400 -0.5972 241° Southwest 258 297 2,000 1,260 Climbing FlightAware UK
04:17AM 51.4213 -0.6286 226° Southwest 266 306 2,500 1,260 Climbing FlightAware UK
04:17AM 51.3995 -0.6323 186° South 264 304 2,900 2,580 Climbing FlightAware UK
04:18AM 51.3542 -0.6233 173° South 272 313 4,800 3,240 Climbing FlightAware UK
04:18AM 51.2936 -0.5945 163° South 284 327 7,500 3,300 Climbing FlightAware UK
04:19AM 51.2720 -0.5751 151° Southeast 284 327 8,500 2,460 Climbing FlightAware UK
04:19AM 51.2343 -0.5422 151° Southeast 300 345 9,500 1,740 Climbing FlightAware UK
04:20AM 51.1385 -0.4565 151° Southeast 358 412 11,300 1,620 Climbing FlightAware UK
04:21AM 51.1104 -0.4314 151° Southeast 360 414 11,800 1,620 Climbing FlightAware UK
04:21AM 51.0821 -0.4064 151° Southeast 360 414 12,300 1,620 Climbing FlightAware UK
04:21AM 51.0522 -0.3811 152° Southeast 364 419 12,800 1,620 Climbing FlightAware UK
04:21AM 51.0216 -0.3559 153° Southeast 372 428 13,300 1,680 Climbing FlightAware UK
04:22AM 50.9823 -0.3158 147° Southeast 376 433 14,000 1,800 Climbing FlightAware UK
04:22AM 50.9556 -0.2794 139° Southeast 378 435 14,600 1,680 Climbing FlightAware UK
04:23AM 50.8930 -0.1923 139° Southeast 384 442 15,700 1,560 Climbing FlightAware UK
04:23AM 50.8656 -0.1546 139° Southeast 382 440 16,200 1,740 Climbing FlightAware UK
04:24AM 50.7809 -0.0375 139° Southeast 402 463 17,800 1,680 Climbing FlightAware UK
04:25AM 50.7328 0.0268 140° Southeast 400 460 18,600 1,620 Climbing FlightAware UK
04:25AM 50.6937 0.0781 140° Southeast 404 465 19,300 1,740 Climbing FlightAware UK
04:25AM 50.6425 0.1433 141° Southeast 408 470 20,200 1,620 Climbing FlightAware UK
04:26AM 50.6012 0.1974 140° Southeast 416 479 20,800 1,680 Climbing FlightAware UK
04:26AM 50.5719 0.2422 136° Southeast 422 486 21,400 1,800 Climbing FlightAware UK
04:26AM 50.5423 0.2863 137° Southeast 424 488 21,900 1,680 Climbing FlightAware UK
04:27AM 50.4730 0.3902 136° Southeast 424 488 23,100 1,560 Climbing FlightAware UK
04:27AM 50.4420 0.4357 137° Southeast 430 495 23,500 480 Climbing FlightAware UK
04:28AM 50.4109 0.4809 137° Southeast 434 499 23,400  Descending FlightAware UK
04:28AM 50.3801 0.5253 137° Southeast 422 486 23,500 120 Climbing FlightAware UK
04:28AM 50.3495 0.5692 138° Southeast 426 490 23,500  Level FlightAware UK
04:29AM 50.3187 0.6136 137° Southeast 426 490 23,500  Level FlightAware UK
04:29AM 50.2877 0.6577 138° Southeast 426 490 23,500  Level FlightAware UK
04:29AM 50.2564 0.7020 138° Southeast 426 490 23,500  Level FlightAware UK
04:30AM 50.2256 0.7460 138° Southeast 426 490 23,500  Level FlightAware UK
04:30AM 50.1638 0.8337 138° Southeast 426 490 23,500  Level FlightAware UK
04:30AM 50.1329 0.8774 138° Southeast 426 490 23,500  Level FlightAware UK
04:31AM 50.1020 0.9212 138° Southeast 426 490 23,500  Level FlightAware UK
04:31AM 50.0709 0.9655 138° Southeast 414 476 23,500  Level FlightAware UK
04:31AM 50.0418 1.0063 138° Southeast 398 458 23,500  Level FlightAware UK
04:32AM 50.0128 1.0474 138° Southeast 392 451 23,500  Level FlightAware UK
04:32AM 49.9835 1.0888 138° Southeast 390 449 23,500 -540 Level FlightAware UK
04:32AM 49.9549 1.1290 138° Southeast 390 449 23,200 -1,200 Descending FlightAware UK
04:33AM 49.9210 1.1590 150° Southeast 386 444 22,800 -1,800 Descending FlightAware UK
04:33AM 49.8475 1.1871 166° South 378 435 21,600 -1,920 Descending FlightAware UK
04:33AM 49.8105 1.1977 170° South 376 433 21,100 -1,860 Descending FlightAware UK
04:34AM 49.7741 1.2073 170° South 374 430 20,500 -2,040 Descending FlightAware UK
04:34AM 49.7383 1.2163 171° South 376 433 19,900 -2,340 Descending FlightAware UK
04:34AM 49.7023 1.2252 171° South 386 444 19,100 -2,160 Descending FlightAware UK
04:35AM 49.6548 1.2366 171° South 378 435 18,400 -1,920 Descending FlightAware UK
04:35AM 49.5965 1.2499 172° South 370 426 17,400 -1,920 Descending FlightAware UK
04:36AM 49.5624 1.2576 172° South 372 428 16,900 -1,740 Descending FlightAware UK
04:36AM 49.5173 1.2683 171° South 364 419 16,200 -1,920 Descending FlightAware UK
04:36AM 49.4761 1.2967 156° South 362 417 15,400 -1,860 Descending FlightAware UK
04:37AM 49.4487 1.3274 144° Southeast 360 414 14,900 -1,680 Descending FlightAware UK
04:37AM 49.4280 1.3667 129° Southeast 354 407 14,400 -1,680 Descending FlightAware UK
04:37AM 49.4125 1.4103 119° Southeast 352 405 13,900 -1,860 Descending FlightAware UK
04:38AM 49.3975 1.4530 118° Southeast 348 400 13,300 -1,860 Descending FlightAware UK
04:38AM 49.3823 1.4961 118° Southeast 344 396 12,800 -1,680 Descending FlightAware UK
04:38AM 49.3679 1.5388 117° Southeast 342 394 12,300 -1,680 Descending FlightAware UK
04:38AM 49.3533 1.5814 118° Southeast 340 391 11,800 -1,500 Descending FlightAware UK
04:39AM 49.3394 1.6224 118° Southeast 336 387 11,400 -1,740 Descending FlightAware UK
04:39AM 49.3208 1.6761 118° Southeast 332 382 10,600 -1,320 Descending FlightAware UK
04:39AM 49.3067 1.7168 118° Southeast 332 382 10,500 -180 Descending FlightAware UK
04:40AM 49.2938 1.7574 116° Southeast 334 384 10,500  Level FlightAware UK
04:40AM 49.2893 1.8029 99° East 328 377 10,500  Level FlightAware UK
04:40AM 49.2866 1.8479 95° East 332 382 10,500  Level FlightAware UK
04:41AM 49.2851 1.8934 93° East 330 380 10,500  Level FlightAware UK
04:41AM 49.2828 1.9533 93° East 332 382 10,500  Level FlightAware UK
04:41AM 49.2812 1.9990 93° East 330 380 10,500  Level FlightAware UK
04:42AM 49.2792 2.0441 94° East 332 382 10,500  Level FlightAware UK
04:42AM 49.2758 2.1195 94° East 330 380 10,500  Level FlightAware UK
04:42AM 49.2737 2.1645 94° East 332 382 10,500  Level FlightAware UK
04:43AM 49.2714 2.2098 94° East 330 380 10,500  Level FlightAware UK
04:43AM 49.2687 2.2546 95° East 332 382 10,500  Level FlightAware UK
04:44AM 49.2650 2.3457 93° East 304 350 10,500  Level FlightAware UK
04:44AM 49.2609 2.4114 96° East 294 338 10,500  Level FlightAware UK
04:44AM 49.2590 2.4522 94° East 1 1 10,500  Level FlightAware UK
04:47AM 49.1699 2.4877 165° South  Level Estimated
04:54AM 49.0128 2.5500 165° South  Level Estimated
04:55AM 49.0128 2.5500 180° South  Level Estimated
04:56AM 49.0128 2.5500 180° South  Level Estimated
04:57AM 49.0128 2.5500 180° South  Level Estimated
04:58AM 49.0128 2.5500 180° South  Level Estimated
04:59AM 49.0128 2.5500 180° South  Level Estimated
05:00AM 49.0128 2.5500 180° South  Level Estimated
05:01AM 49.0128 2.5500 180° South  Level Estimated
05:02AM 49.0128 2.5500 180° South  Level Estimated
05:03AM 49.0128 2.5500 180° South  Level Estimated
05:04AM 49.0128 2.5500 180° South  Level Estimated
05:05AM 49.0128 2.5500 180° South  Level Estimated
05:06AM 49.0128 2.5500 180° South  Level Estimated
05:07AM 49.0128 2.5500 180° South  Level Estimated
05:08AM 49.0128 2.5500 180° South  Level Estimated
05:09AM 49.0128 2.5500 180° South  Level Estimated
05:10AM 49.0128 2.5500 180° South  Level Estimated
05:11AM 49.0128 2.5500 180° South  Level Estimated
05:12AM 49.0128 2.5500 180° South  Level Estimated
05:13AM 49.0128 2.5500 180° South  Level Estimated
05:14AM 49.0128 2.5500 180° South  Level Estimated
05:15AM 49.0128 2.5500 180° South  Level Estimated
05:16AM 49.0128 2.5500 180° South  Level Estimated
05:17AM 49.0128 2.5500 180° South  Level Estimated
05:18AM 49.0128 2.5500 180° South  Level Estimated
05:19AM 49.0128 2.5500 180° South  Level Estimated
05:20AM 49.0128 2.5500 180° South  Level Estimated
05:21AM 49.0128 2.5500 180° South  Level Estimated
05:22AM 49.0128 2.5500 180° South  Level Estimated
05:23AM 49.0128 2.5500 180° South  Level Estimated
05:24AM 49.0128 2.5500 180° South  Level Estimated
05:25AM 49.0128 2.5500 180° South  Level Estimated
05:26AM 49.0128 2.5500 180° South  Level Estimated
05:27AM 49.0128 2.5500 180° South  Level Estimated
05:28AM 49.0128 2.5500 180° South  Level Estimated
05:29AM 49.0128 2.5500 180° South  Level Estimated
05:30AM 49.0128 2.5500 180° South  Level Estimated
05:31AM 49.0128 2.5500 180° South  Level Estimated
05:32AM 49.0128 2.5500 180° South  Level Estimated
05:33AM 49.0128 2.5500 180° South  Level Estimated
05:34AM 49.0128 2.5500 180° South  Level Estimated
05:35AM 49.0128 2.5500 180° South  Level Estimated
05:36AM 49.0128 2.5500 180° South  Level Estimated